Time;durP1;ratioP1;P1;durP2;ratioP2;P2;SDS_P1;SDS_P2;PMS_P1;PMS_P2;Temp;Humidity;BMP_temperature;BMP_pressure;BME280_temperature;BME280_humidity;BME280_pressure;Samples;Min_cycle;Max_cycle;Signal;HPM_P1;HPM_P2
2022/03/13 00:00:24;;;;;;;12.97;4.77;;;;;;;19.11;48.68;100212.16;5051498;28;20425;-60
2022/03/13 00:02:52;;;;;;;13.10;4.33;;;;;;;19.11;48.18;100205.63;5035269;28;20180;-60
2022/03/13 00:05:17;;;;;;;9.40;4.10;;;;;;;19.10;48.65;100216.25;5051549;28;20454;-60
2022/03/13 00:07:43;;;;;;;8.73;3.80;;;;;;;19.08;48.72;100212.13;5050903;28;20430;-60
2022/03/13 00:10:10;;;;;;;16.17;4.57;;;;;;;19.11;48.88;100214.22;5031336;28;20232;-60
2022/03/13 00:12:35;;;;;;;12.80;4.87;;;;;;;19.10;48.55;100221.13;5035689;28;20454;-60
2022/03/13 00:15:03;;;;;;;10.73;4.67;;;;;;;19.09;48.64;100213.78;5051251;28;20429;-60
2022/03/13 00:17:29;;;;;;;8.53;4.60;;;;;;;19.10;48.75;100224.00;5051271;28;20186;-60
2022/03/13 00:20:02;;;;;;;9.47;4.00;;;;;;;19.11;48.38;100222.81;5051098;28;20422;-60
2022/03/13 00:22:28;;;;;;;9.37;4.30;;;;;;;19.09;48.56;100226.06;5050859;28;20588;-60
2022/03/13 00:24:54;;;;;;;12.73;4.00;;;;;;;19.08;48.60;100223.56;5051390;28;20497;-60
2022/03/13 00:27:19;;;;;;;12.93;4.30;;;;;;;19.08;48.87;100227.28;5051298;28;20172;-60
2022/03/13 00:29:45;;;;;;;12.30;3.87;;;;;;;19.09;48.86;100219.50;5050756;28;20484;-60
2022/03/13 00:32:10;;;;;;;9.47;4.17;;;;;;;19.10;48.95;100232.59;5051015;28;20200;-60
2022/03/13 00:34:36;;;;;;;11.37;4.57;;;;;;;19.09;48.90;100228.91;5050748;28;20183;-60
2022/03/13 00:37:02;;;;;;;10.13;4.17;;;;;;;19.07;48.69;100222.72;5051186;28;20489;-60
2022/03/13 00:39:27;;;;;;;7.83;4.17;;;;;;;19.08;48.63;100230.13;5050364;28;20267;-60
2022/03/13 00:41:52;;;;;;;8.70;3.33;;;;;;;19.09;48.73;100228.91;5033120;28;20275;-60
2022/03/13 00:44:18;;;;;;;9.20;4.47;;;;;;;19.08;48.53;100223.56;5050378;28;20198;-60
2022/03/13 00:46:44;;;;;;;9.00;4.10;;;;;;;19.07;48.85;100227.66;5050987;28;20203;-60
2022/03/13 00:49:09;;;;;;;11.70;3.80;;;;;;;19.06;48.47;100226.00;5050492;28;20586;-60
2022/03/13 00:51:35;;;;;;;7.00;3.93;;;;;;;19.05;48.89;100230.88;5050126;28;20206;-60
2022/03/13 00:54:00;;;;;;;9.50;5.27;;;;;;;19.06;48.89;100237.44;5043489;28;20173;-60
2022/03/13 00:56:26;;;;;;;11.00;4.13;;;;;;;19.07;48.88;100233.38;5030840;28;20177;-60
2022/03/13 00:58:52;;;;;;;10.07;3.83;;;;;;;19.06;49.00;100237.44;5030157;28;20574;-60
2022/03/13 01:01:17;;;;;;;9.20;4.20;;;;;;;19.05;48.80;100232.91;5030280;28;20176;-60
2022/03/13 01:03:43;;;;;;;11.00;3.97;;;;;;;19.07;48.60;100237.03;5032980;28;20556;-60
2022/03/13 01:06:08;;;;;;;9.63;4.03;;;;;;;19.07;48.89;100245.63;5031097;28;20180;-60
2022/03/13 01:08:34;;;;;;;8.30;3.27;;;;;;;19.05;48.80;100233.75;5047845;28;20719;-60
2022/03/13 01:11:00;;;;;;;9.90;4.20;;;;;;;19.05;48.81;100235.78;5031964;28;20215;-60
2022/03/13 01:13:26;;;;;;;7.60;3.70;;;;;;;19.05;48.74;100230.88;5049752;28;20179;-60
2022/03/13 01:15:55;;;;;;;8.93;4.23;;;;;;;19.05;48.92;100236.63;5050382;28;20210;-60
2022/03/13 01:18:21;;;;;;;10.50;4.07;;;;;;;19.07;48.89;100228.47;5050423;28;20176;-60
2022/03/13 01:20:47;;;;;;;7.50;4.07;;;;;;;19.05;48.40;100236.63;5049715;28;20425;-60
2022/03/13 01:23:14;;;;;;;12.97;3.80;;;;;;;19.04;48.62;100234.97;5049878;28;20194;-60
2022/03/13 01:25:39;;;;;;;7.80;3.67;;;;;;;19.04;48.73;100234.97;5050455;28;20414;-60
2022/03/13 01:28:05;;;;;;;6.67;3.47;;;;;;;19.04;48.65;100237.84;5049812;28;20917;-60
2022/03/13 01:30:30;;;;;;;6.67;4.10;;;;;;;19.06;48.69;100238.25;5048437;28;20206;-60
2022/03/13 01:32:56;;;;;;;7.27;3.80;;;;;;;19.05;48.65;100245.19;5049796;28;20631;-60
2022/03/13 01:35:22;;;;;;;7.60;3.20;;;;;;;19.04;48.87;100234.13;5044852;28;20179;-60
2022/03/13 01:37:48;;;;;;;11.87;4.20;;;;;;;19.06;49.04;100237.44;5049249;28;20526;-60
2022/03/13 01:40:17;;;;;;;7.17;4.00;;;;;;;19.05;48.56;100241.50;5044955;28;20434;-60
2022/03/13 01:42:44;;;;;;;9.73;4.13;;;;;;;19.05;48.75;100230.06;5049577;28;20634;-60
2022/03/13 01:45:14;;;;;;;6.70;3.20;;;;;;;19.05;48.72;100230.88;5049632;28;20410;-60
2022/03/13 01:47:39;;;;;;;6.50;3.33;;;;;;;19.04;48.88;100234.13;5048840;28;20444;-60
2022/03/13 01:50:09;;;;;;;6.90;3.63;;;;;;;19.02;48.84;100234.50;5049142;28;20418;-60
2022/03/13 01:52:35;;;;;;;7.57;3.50;;;;;;;19.03;48.71;100232.50;5048896;28;20210;-60
2022/03/13 01:55:00;;;;;;;6.90;3.70;;;;;;;19.03;48.82;100236.19;5049652;28;20929;-60
2022/03/13 01:57:26;;;;;;;8.23;3.50;;;;;;;19.02;48.69;100230.84;5049228;28;20194;-60
2022/03/13 01:59:56;;;;;;;6.83;3.43;;;;;;;19.02;48.96;100225.94;5049147;28;20176;-60
2022/03/13 02:02:22;;;;;;;10.03;3.87;;;;;;;19.02;48.70;100223.06;5049098;28;20171;-60
2022/03/13 02:04:53;;;;;;;7.10;4.00;;;;;;;19.04;48.82;100222.69;5049361;28;20442;-60
2022/03/13 02:07:21;;;;;;;10.23;3.80;;;;;;;19.03;48.89;100223.91;5049353;28;20429;-60
2022/03/13 02:09:47;;;;;;;9.90;4.20;;;;;;;19.00;48.92;100225.50;5031076;28;20459;-60
2022/03/13 02:12:13;;;;;;;7.03;3.73;;;;;;;18.99;48.72;100234.47;5028982;28;20498;-60
2022/03/13 02:14:38;;;;;;;8.17;3.20;;;;;;;19.03;48.74;100236.19;5011978;28;20191;-60
2022/03/13 02:17:04;;;;;;;5.87;3.53;;;;;;;19.02;48.80;100231.66;5029496;28;20205;-60
2022/03/13 02:19:30;;;;;;;10.93;4.07;;;;;;;19.01;48.73;100218.56;5028714;28;20183;-60
2022/03/13 02:21:56;;;;;;;7.97;3.30;;;;;;;19.04;48.77;100216.97;5043288;28;20557;-60
2022/03/13 02:24:23;;;;;;;5.13;2.80;;;;;;;19.03;48.64;100213.28;5049404;28;20662;-60
2022/03/13 02:27:05;;;;;;;11.23;4.20;;;;;;;19.02;48.72;100210.81;5049327;28;20415;-60
2022/03/13 02:29:31;;;;;;;5.50;3.17;;;;;;;18.99;48.82;100218.13;5049030;28;20422;-60
2022/03/13 02:32:00;;;;;;;8.87;4.00;;;;;;;19.03;48.65;100209.59;5049008;28;21285;-60
2022/03/13 02:34:25;;;;;;;10.03;3.67;;;;;;;19.00;48.68;100218.94;5049275;28;20175;-60
2022/03/13 02:36:51;;;;;;;5.80;2.90;;;;;;;18.99;48.92;100209.56;5049485;28;20422;-60
2022/03/13 02:39:16;;;;;;;8.50;4.00;;;;;;;19.00;49.00;100205.47;5048845;28;20202;-60
2022/03/13 02:41:42;;;;;;;7.60;3.50;;;;;;;18.99;48.71;100206.69;5049129;28;20164;-60
2022/03/13 02:44:08;;;;;;;7.80;3.80;;;;;;;18.99;48.80;100200.97;5049224;28;20160;-60
2022/03/13 02:46:45;;;;;;;6.87;3.50;;;;;;;19.00;48.82;100204.63;5047501;28;20171;-60
2022/03/13 02:49:11;;;;;;;5.63;3.30;;;;;;;19.00;48.64;100196.06;5048235;28;20421;-60
2022/03/13 02:51:37;;;;;;;7.47;4.27;;;;;;;18.97;48.98;100206.22;5042684;28;21041;-60
2022/03/13 02:54:02;;;;;;;7.70;3.30;;;;;;;18.98;48.72;100204.22;5028030;28;20512;-60
2022/03/13 02:56:28;;;;;;;8.03;3.33;;;;;;;18.97;48.71;100209.09;5028634;28;20269;-60
2022/03/13 02:58:53;;;;;;;5.83;3.13;;;;;;;18.97;48.84;100211.97;5028706;28;20172;-60
2022/03/13 03:01:19;;;;;;;9.73;3.63;;;;;;;18.97;49.03;100203.38;5028484;28;20176;-60
2022/03/13 03:03:48;;;;;;;7.60;3.40;;;;;;;18.98;48.78;100196.47;5029128;28;20188;-60
2022/03/13 03:06:14;;;;;;;6.70;3.57;;;;;;;18.96;48.77;100204.59;5029009;28;20180;-60
2022/03/13 03:08:39;;;;;;;5.83;3.07;;;;;;;18.98;48.55;100198.50;5036156;28;20465;-60
2022/03/13 03:11:05;;;;;;;7.87;3.50;;;;;;;18.99;48.99;100203.84;5047344;28;20204;-60
2022/03/13 03:13:31;;;;;;;6.73;3.77;;;;;;;18.99;48.81;100195.25;5033202;28;20226;-60
2022/03/13 03:15:56;;;;;;;10.53;3.50;;;;;;;18.99;48.70;100194.41;5031380;28;20187;-60
2022/03/13 03:18:22;;;;;;;11.53;3.37;;;;;;;18.98;48.55;100199.31;5032439;28;20183;-60
2022/03/13 03:20:47;;;;;;;6.73;3.27;;;;;;;18.97;48.77;100194.78;5037272;28;20186;-60
2022/03/13 03:23:13;;;;;;;6.20;3.47;;;;;;;18.97;48.66;100200.50;5052175;28;20210;-60
2022/03/13 03:25:38;;;;;;;8.53;3.40;;;;;;;18.98;49.01;100195.63;5052469;28;20262;-60
2022/03/13 03:28:04;;;;;;;8.37;3.23;;;;;;;18.96;48.75;100189.47;5044684;28;20161;-60
2022/03/13 03:30:30;;;;;;;6.00;3.10;;;;;;;18.95;48.90;100199.25;5031702;28;20220;-60
2022/03/13 03:32:55;;;;;;;7.33;3.33;;;;;;;18.92;48.89;100206.56;5030773;28;20254;-60
2022/03/13 03:35:22;;;;;;;6.00;3.40;;;;;;;18.96;48.57;100204.59;5038371;28;20179;-60
2022/03/13 03:37:48;;;;;;;6.87;3.10;;;;;;;18.96;48.74;100212.38;5049320;28;20550;-60
2022/03/13 03:40:14;;;;;;;7.33;3.50;;;;;;;18.97;48.88;100216.88;5044164;28;20517;-60
2022/03/13 03:42:40;;;;;;;5.77;2.80;;;;;;;18.97;48.62;100217.69;5052303;28;20499;-60
2022/03/13 03:45:06;;;;;;;6.20;3.13;;;;;;;18.95;48.77;100213.56;5051870;28;20536;-60
2022/03/13 03:47:31;;;;;;;4.77;2.90;;;;;;;18.94;49.09;100211.91;5051204;28;20252;-60
2022/03/13 03:49:56;;;;;;;5.30;3.30;;;;;;;18.95;48.57;100214.38;5051778;28;20897;-60
2022/03/13 03:52:22;;;;;;;8.27;3.53;;;;;;;18.98;48.57;100213.63;5051324;28;20698;-60
2022/03/13 03:54:48;;;;;;;6.80;3.20;;;;;;;18.98;48.71;100218.50;5052099;28;20171;-60
2022/03/13 03:57:13;;;;;;;6.50;3.37;;;;;;;18.95;48.98;100217.25;5051756;28;20643;-60
2022/03/13 03:59:39;;;;;;;4.87;3.07;;;;;;;18.97;48.66;100217.69;5051472;28;20168;-60
2022/03/13 04:02:04;;;;;;;6.90;3.40;;;;;;;18.97;48.79;100223.41;5051431;28;20172;-60
2022/03/13 04:04:29;;;;;;;6.23;3.47;;;;;;;18.97;48.70;100229.13;5051751;28;20184;-60
2022/03/13 04:06:55;;;;;;;6.20;3.37;;;;;;;18.99;48.71;100234.47;5051867;28;20172;-60
2022/03/13 04:09:20;;;;;;;5.80;3.07;;;;;;;18.95;48.91;100231.56;5051107;28;20215;-60
2022/03/13 04:11:47;;;;;;;6.63;3.00;;;;;;;18.95;48.81;100225.00;5050333;28;20732;-60
2022/03/13 04:14:14;;;;;;;7.40;3.47;;;;;;;18.94;48.81;100224.19;5050931;28;20168;-60
2022/03/13 04:16:40;;;;;;;5.23;2.83;;;;;;;18.95;48.49;100225.84;5051986;28;21018;-60
2022/03/13 04:19:05;;;;;;;6.33;3.20;;;;;;;18.92;48.83;100228.66;5051128;28;20783;-60
2022/03/13 04:21:30;;;;;;;7.83;3.87;;;;;;;18.96;48.69;100229.53;5051093;28;20426;-60
2022/03/13 04:23:56;;;;;;;4.60;3.03;;;;;;;18.96;48.52;100220.94;5051039;28;20172;-60
2022/03/13 04:26:25;;;;;;;6.80;2.90;;;;;;;18.95;48.88;100225.84;5051426;28;20255;-60
2022/03/13 04:28:50;;;;;;;5.33;3.07;;;;;;;18.94;48.52;100231.94;5050934;28;20178;-60
2022/03/13 04:31:17;;;;;;;6.20;3.40;;;;;;;18.94;48.79;100235.63;5051082;28;20493;-60
2022/03/13 04:33:42;;;;;;;7.07;3.60;;;;;;;18.90;48.76;100237.59;5051173;28;20187;-60
2022/03/13 04:36:13;;;;;;;5.03;2.67;;;;;;;18.94;48.60;100240.53;5051202;28;20955;-60
2022/03/13 04:38:39;;;;;;;7.77;3.47;;;;;;;18.96;48.37;100236.06;5051159;28;20199;-60
2022/03/13 04:41:04;;;;;;;6.53;3.07;;;;;;;18.94;49.15;100244.22;5050774;28;20406;-60
2022/03/13 04:43:30;;;;;;;8.40;3.70;;;;;;;18.91;48.40;100242.13;5050717;28;20418;-60
2022/03/13 04:45:55;;;;;;;5.63;3.20;;;;;;;18.90;48.93;100243.34;5051114;28;20198;-60
2022/03/13 04:48:21;;;;;;;5.70;3.17;;;;;;;18.94;48.46;100232.78;5050349;28;20217;-60
2022/03/13 04:50:47;;;;;;;4.50;2.80;;;;;;;18.95;48.68;100239.31;5050480;28;20187;-60
2022/03/13 04:53:13;;;;;;;4.37;2.80;;;;;;;18.93;48.55;100250.31;5050594;28;20245;-60
2022/03/13 04:55:38;;;;;;;7.80;3.17;;;;;;;18.91;48.61;100247.03;5033824;28;20225;-60
2022/03/13 04:58:04;;;;;;;5.80;3.10;;;;;;;18.91;48.70;100247.84;5030437;28;20431;-60
2022/03/13 05:00:30;;;;;;;5.63;2.80;;;;;;;18.95;48.52;100243.00;5030505;28;20180;-60
2022/03/13 05:02:55;;;;;;;6.00;3.27;;;;;;;18.93;48.33;100251.16;5035050;28;20164;-60
2022/03/13 05:05:21;;;;;;;5.53;2.93;;;;;;;18.94;48.61;100258.53;5032568;28;20218;-60
2022/03/13 05:07:47;;;;;;;6.20;2.97;;;;;;;18.95;48.27;100256.47;5050436;28;20179;-60
2022/03/13 05:10:12;;;;;;;5.60;2.63;;;;;;;18.91;48.45;100265.00;5049934;28;20458;-59
2022/03/13 05:12:38;;;;;;;7.10;3.30;;;;;;;18.94;48.97;100266.25;5032137;28;20204;-59
2022/03/13 05:15:04;;;;;;;5.17;2.87;;;;;;;18.96;48.58;100278.16;5050734;28;20654;-59
2022/03/13 05:17:29;;;;;;;4.57;2.93;;;;;;;18.95;48.80;100277.31;5049170;28;20568;-60
2022/03/13 05:19:55;;;;;;;5.30;2.67;;;;;;;18.92;48.46;100277.28;5047265;28;20231;-60
2022/03/13 05:22:21;;;;;;;5.67;2.87;;;;;;;18.93;48.25;100274.03;5050171;28;20180;-60
2022/03/13 05:24:47;;;;;;;6.00;3.07;;;;;;;18.95;48.55;100277.31;5040782;28;20575;-60
2022/03/13 05:27:12;;;;;;;6.37;3.30;;;;;;;18.93;48.64;100278.94;5030181;28;20189;-60
2022/03/13 05:29:38;;;;;;;5.03;2.73;;;;;;;18.90;48.63;100279.69;5036164;28;20168;-60
2022/03/13 05:32:04;;;;;;;10.43;2.77;;;;;;;18.91;48.72;100281.34;5049634;28;20690;-60
2022/03/13 05:34:29;;;;;;;5.23;2.53;;;;;;;18.91;48.89;100278.50;5050191;28;20178;-60
2022/03/13 05:36:55;;;;;;;5.80;2.87;;;;;;;18.93;48.93;100279.75;5043667;28;20585;-60
2022/03/13 05:39:20;;;;;;;5.50;3.10;;;;;;;18.89;48.63;100280.91;5029722;28;20187;-60
2022/03/13 05:41:45;;;;;;;8.10;2.80;;;;;;;18.90;48.73;100283.38;5044124;28;20187;-60
2022/03/13 05:44:12;;;;;;;5.47;3.00;;;;;;;18.92;48.43;100278.09;5049584;28;20176;-60
2022/03/13 05:46:38;;;;;;;6.73;3.50;;;;;;;18.88;48.71;100277.22;5048592;28;20176;-60
2022/03/13 05:49:03;;;;;;;5.50;2.83;;;;;;;18.91;48.57;100267.06;5049319;28;20421;-60
2022/03/13 05:51:41;;;;;;;7.30;2.97;;;;;;;18.90;48.61;100262.50;5049767;28;20204;-60
2022/03/13 05:54:06;;;;;;;3.00;2.40;;;;;;;18.88;49.02;100277.22;5049165;28;20166;-60
2022/03/13 05:56:32;;;;;;;5.83;2.67;;;;;;;18.88;48.63;100277.22;5049677;28;20504;-60
2022/03/13 05:58:57;;;;;;;4.60;2.47;;;;;;;18.93;48.92;100287.50;5049225;28;20168;-60
2022/03/13 06:01:23;;;;;;;4.77;3.00;;;;;;;18.90;48.43;100294.81;5049637;28;20221;-60
2022/03/13 06:03:48;;;;;;;4.23;2.73;;;;;;;18.91;48.40;100307.91;5049042;28;20190;-60
2022/03/13 06:06:14;;;;;;;5.90;3.27;;;;;;;18.91;48.54;100310.78;5049717;28;20168;-60
2022/03/13 06:08:40;;;;;;;5.17;2.63;;;;;;;18.90;49.11;100314.00;5049064;28;20224;-60
2022/03/13 06:11:05;;;;;;;5.10;3.10;;;;;;;18.90;48.51;100316.88;5049014;28;20892;-60
2022/03/13 06:13:31;;;;;;;6.97;2.80;;;;;;;18.89;48.66;100312.38;5048958;28;20245;-60
2022/03/13 06:15:58;;;;;;;5.00;3.00;;;;;;;18.90;48.60;100320.56;5049553;28;20724;-60
2022/03/13 06:18:24;;;;;;;6.43;3.03;;;;;;;18.89;48.54;100309.50;5048940;28;20168;-60
2022/03/13 06:20:50;;;;;;;5.67;3.13;;;;;;;18.90;48.69;100311.16;5049466;28;20426;-60
2022/03/13 06:23:16;;;;;;;4.00;2.80;;;;;;;18.91;48.74;100322.22;5048628;28;20429;-60
2022/03/13 06:25:43;;;;;;;5.10;3.00;;;;;;;18.92;48.40;100314.47;5049339;28;20213;-60
2022/03/13 06:28:09;;;;;;;4.10;2.40;;;;;;;18.91;48.65;100312.81;5049829;28;20422;-60
2022/03/13 06:30:34;;;;;;;4.50;2.70;;;;;;;18.87;48.74;100309.06;5049062;28;20480;-60
2022/03/13 06:33:00;;;;;;;5.73;2.90;;;;;;;18.87;48.53;100306.22;5048809;28;20422;-60
2022/03/13 06:35:25;;;;;;;4.80;2.73;;;;;;;18.85;48.64;100306.59;5049234;28;20242;-60
2022/03/13 06:37:54;;;;;;;3.93;2.33;;;;;;;18.87;48.48;100307.03;5049114;28;20179;-60
2022/03/13 06:40:20;;;;;;;4.37;2.50;;;;;;;18.90;48.30;100308.28;5048970;28;20179;-60
2022/03/13 06:42:46;;;;;;;5.10;3.10;;;;;;;18.87;48.49;100298.44;5048714;28;20418;-60
2022/03/13 06:45:12;;;;;;;4.70;2.40;;;;;;;18.90;48.54;100305.44;5049451;28;20414;-60
2022/03/13 06:47:38;;;;;;;6.40;2.90;;;;;;;18.90;48.25;100297.69;5047987;28;20433;-60
2022/03/13 06:50:04;;;;;;;4.60;2.60;;;;;;;18.87;48.85;100295.56;5049538;28;20423;-60
2022/03/13 06:52:29;;;;;;;4.27;2.90;;;;;;;18.91;48.29;100296.47;5052243;28;20486;-60
2022/03/13 06:54:55;;;;;;;5.60;3.23;;;;;;;18.88;48.45;100302.97;5053202;28;20452;-60
2022/03/13 06:57:20;;;;;;;4.17;2.57;;;;;;;18.88;48.39;100305.84;5052962;28;20544;-60
2022/03/13 06:59:46;;;;;;;4.77;2.60;;;;;;;18.86;48.40;100302.50;5052590;28;20233;-59
2022/03/13 07:02:13;;;;;;;6.03;3.13;;;;;;;18.84;48.56;100298.38;5052031;28;20171;-59
2022/03/13 07:04:38;;;;;;;4.60;2.50;;;;;;;18.91;48.41;100287.88;5035353;28;20877;-59
2022/03/13 07:07:04;;;;;;;3.90;2.13;;;;;;;18.88;48.48;100282.94;5052663;28;20426;-60
2022/03/13 07:09:30;;;;;;;5.57;2.93;;;;;;;18.86;48.40;100279.63;5036584;28;20256;-60
2022/03/13 07:11:55;;;;;;;4.77;2.53;;;;;;;18.85;48.59;100275.13;5032691;28;20196;-60
2022/03/13 07:14:21;;;;;;;5.20;2.70;;;;;;;18.88;48.29;100265.78;5032611;28;20177;-60
2022/03/13 07:16:49;;;;;;;5.50;2.63;;;;;;;18.87;48.67;100269.84;5032772;28;20183;-60
2022/03/13 07:19:15;;;;;;;4.20;2.30;;;;;;;18.87;48.64;100269.84;5031958;28;20530;-60
2022/03/13 07:21:40;;;;;;;4.83;2.80;;;;;;;18.91;48.60;100275.63;5044986;28;20430;-60
2022/03/13 07:24:06;;;;;;;4.70;2.37;;;;;;;18.88;48.64;100277.22;5051931;28;20168;-60
2022/03/13 07:26:31;;;;;;;6.43;3.00;;;;;;;18.87;48.57;100287.00;5034819;28;20179;-60
2022/03/13 07:28:57;;;;;;;5.63;2.40;;;;;;;18.90;48.44;100291.97;5031720;28;20219;-60
2022/03/13 07:31:22;;;;;;;5.60;3.23;;;;;;;18.92;48.50;100294.44;5031888;28;20200;-60
2022/03/13 07:33:48;;;;;;;5.57;2.77;;;;;;;18.89;48.47;100292.34;5034492;28;20176;-60
2022/03/13 07:36:14;;;;;;;5.90;3.10;;;;;;;18.90;48.37;100282.53;5045880;28;20168;-60
2022/03/13 07:38:39;;;;;;;4.47;2.70;;;;;;;18.88;48.37;100277.22;5051743;28;20180;-60
2022/03/13 07:41:05;;;;;;;4.90;2.77;;;;;;;18.90;48.56;100280.53;5051715;28;20233;-60
2022/03/13 07:43:31;;;;;;;3.90;2.50;;;;;;;18.88;48.20;100277.22;5052032;28;20259;-60
2022/03/13 07:45:57;;;;;;;4.13;2.50;;;;;;;18.91;48.24;100287.06;5052049;28;20421;-60
2022/03/13 07:48:22;;;;;;;4.00;2.50;;;;;;;18.91;48.38;100287.06;5051754;28;20779;-60
2022/03/13 07:50:48;;;;;;;4.40;2.80;;;;;;;18.89;48.41;100280.91;5051486;28;20309;-60
2022/03/13 07:53:13;;;;;;;5.80;2.80;;;;;;;18.91;48.12;100290.75;5051675;28;20244;-60
2022/03/13 07:55:39;;;;;;;4.43;2.30;;;;;;;18.89;48.44;100286.63;5052209;28;20696;-60
2022/03/13 07:58:05;;;;;;;4.00;2.40;;;;;;;18.88;48.26;100273.53;5051730;28;20175;-60
2022/03/13 08:00:30;;;;;;;4.37;2.67;;;;;;;18.90;48.38;100273.97;5050437;28;20191;-60
2022/03/13 08:02:55;;;;;;;3.97;2.33;;;;;;;18.92;48.29;100277.28;5051337;28;20164;-60
2022/03/13 08:05:24;;;;;;;4.00;2.73;;;;;;;18.88;48.21;100267.81;5051609;28;20200;-60
2022/03/13 08:07:50;;;;;;;4.50;2.43;;;;;;;18.88;48.50;100270.66;5049439;28;20606;-60
2022/03/13 08:10:20;;;;;;;7.70;2.90;;;;;;;18.89;48.27;100263.72;4993928;28;20524;-60
2022/03/13 08:12:47;;;;;;;5.27;2.80;;;;;;;18.91;48.62;100259.28;4992143;28;20269;-60
2022/03/13 08:15:12;;;;;;;4.83;2.70;;;;;;;18.90;48.32;100268.25;4992014;28;20420;-60
2022/03/13 08:17:38;;;;;;;5.93;2.57;;;;;;;18.91;48.46;100267.84;4992232;28;20464;-60
2022/03/13 08:20:04;;;;;;;4.90;2.50;;;;;;;18.93;48.51;100256.03;4991813;28;20174;-59
2022/03/13 08:22:29;;;;;;;4.10;2.57;;;;;;;18.90;48.65;100271.94;5009564;28;20514;-60
2022/03/13 08:24:55;;;;;;;4.07;2.40;;;;;;;18.91;48.22;100279.31;5011173;28;20471;-60
2022/03/13 08:27:20;;;;;;;4.40;2.60;;;;;;;18.93;48.24;100290.38;5011629;28;20541;-60
2022/03/13 08:29:46;;;;;;;5.17;3.13;;;;;;;18.89;48.28;100278.03;5010993;28;20181;-60
2022/03/13 08:32:11;;;;;;;4.07;2.50;;;;;;;18.90;48.42;100285.41;5011599;28;20193;-60
2022/03/13 08:34:39;;;;;;;3.63;2.50;;;;;;;18.91;48.40;100281.34;5010561;28;20185;-60
2022/03/13 08:37:04;;;;;;;4.00;2.63;;;;;;;18.92;48.29;100283.81;5011750;28;20240;-63
2022/03/13 08:39:30;;;;;;;4.50;2.67;;;;;;;18.91;48.64;100281.34;5011399;28;20423;-62
2022/03/13 08:41:56;;;;;;;4.23;2.60;;;;;;;18.90;48.49;100291.97;5002180;28;20181;-61
2022/03/13 08:44:21;;;;;;;4.73;2.70;;;;;;;18.90;48.23;100283.38;4974183;28;20422;-61
2022/03/13 08:46:47;;;;;;;3.60;2.30;;;;;;;18.91;48.21;100289.94;4990435;28;20178;-61
2022/03/13 08:49:13;;;;;;;4.03;2.30;;;;;;;18.90;48.28;100286.25;4991397;28;20203;-62
2022/03/13 08:51:39;;;;;;;3.33;2.20;;;;;;;18.90;48.50;100282.53;5002739;28;20332;-62
2022/03/13 08:54:04;;;;;;;5.07;2.40;;;;;;;18.90;48.30;100279.69;5009767;28;20447;-61
2022/03/13 08:56:30;;;;;;;4.20;2.23;;;;;;;18.90;48.37;100276.81;5010506;28;20184;-60
2022/03/13 08:58:55;;;;;;;6.70;2.60;;;;;;;18.91;48.43;100270.72;5010622;28;20214;-60
2022/03/13 09:01:22;;;;;;;4.03;2.50;;;;;;;18.89;48.65;100266.59;5010854;28;20172;-60
2022/03/13 09:03:48;;;;;;;3.20;2.30;;;;;;;18.92;48.26;100280.13;5010919;28;20192;-61
2022/03/13 09:06:13;;;;;;;3.97;2.70;;;;;;;18.91;48.31;100279.31;5010827;28;20408;-60
2022/03/13 09:08:39;;;;;;;4.80;2.73;;;;;;;18.92;48.15;100272.38;5008683;28;20309;-60
2022/03/13 09:11:04;;;;;;;6.03;2.97;;;;;;;18.91;48.54;100276.44;5029039;28;20295;-61
2022/03/13 09:13:30;;;;;;;3.30;2.30;;;;;;;18.90;48.46;100263.34;5030551;28;20244;-61
2022/03/13 09:15:56;;;;;;;3.70;2.10;;;;;;;18.89;48.56;100264.56;5030833;28;20240;-61
2022/03/13 09:18:22;;;;;;;4.07;2.43;;;;;;;18.88;48.53;100257.19;5030702;28;20367;-61
2022/03/13 09:20:47;;;;;;;5.03;2.80;;;;;;;18.92;48.43;100269.50;5035636;28;20448;-61
2022/03/13 09:23:13;;;;;;;6.00;2.80;;;;;;;18.91;48.56;100270.72;5050342;28;20246;-61
2022/03/13 09:25:38;;;;;;;3.90;2.30;;;;;;;18.93;48.24;100279.75;5048733;28;20220;-61
2022/03/13 09:28:04;;;;;;;3.47;2.20;;;;;;;18.92;48.35;100275.22;5030870;28;20184;-62
2022/03/13 09:30:30;;;;;;;4.33;2.80;;;;;;;18.93;48.19;100262.59;5029783;28;20183;-61
2022/03/13 09:32:55;;;;;;;4.70;2.67;;;;;;;18.92;48.64;100271.56;5044490;28;20203;-60
2022/03/13 09:35:21;;;;;;;3.50;2.40;;;;;;;18.90;48.54;100269.06;5045610;28;20186;-60
2022/03/13 09:37:46;;;;;;;4.67;3.03;;;;;;;18.92;48.22;100271.56;5032755;28;20277;-60
2022/03/13 09:40:13;;;;;;;4.30;2.57;;;;;;;18.91;48.26;100272.78;5029699;28;20184;-61
2022/03/13 09:42:39;;;;;;;4.00;2.40;;;;;;;18.92;48.35;100272.38;5040216;28;20180;-61
2022/03/13 09:45:04;;;;;;;4.00;2.70;;;;;;;18.92;48.16;100269.50;5049986;28;20492;-61
2022/03/13 09:47:30;;;;;;;4.90;2.60;;;;;;;18.89;48.53;100267.44;5050124;28;20180;-60
2022/03/13 09:49:55;;;;;;;4.50;2.67;;;;;;;18.91;48.25;100269.91;5049747;28;20537;-60
2022/03/13 09:52:21;;;;;;;3.83;2.50;;;;;;;18.90;48.26;100257.63;5049910;28;20203;-61
2022/03/13 09:54:46;;;;;;;5.30;2.60;;;;;;;18.89;48.46;100255.16;5049833;28;20171;-60
2022/03/13 09:57:12;;;;;;;3.93;2.40;;;;;;;18.88;48.39;100254.34;5049705;28;20174;-61
2022/03/13 09:59:37;;;;;;;4.67;2.47;;;;;;;18.89;48.46;100260.88;5049141;28;20528;-61
2022/03/13 10:02:05;;;;;;;4.13;3.00;;;;;;;18.88;48.55;100256.38;5049476;28;20661;-61
2022/03/13 10:04:31;;;;;;;4.80;2.60;;;;;;;18.91;48.35;100258.47;5048102;28;20663;-61
2022/03/13 10:07:10;;;;;;;3.50;2.13;;;;;;;18.91;48.41;100259.28;5050027;28;20423;-62
2022/03/13 10:09:37;;;;;;;4.03;2.60;;;;;;;18.90;48.53;100257.63;5032513;28;20513;-61
2022/03/13 10:12:13;;;;;;;4.70;2.50;;;;;;;18.91;48.33;100255.63;5029422;28;20450;-61
2022/03/13 10:15:01;;;;;;;4.47;2.70;;;;;;;18.92;48.58;100252.34;5033586;28;20428;-61
2022/03/13 10:17:27;;;;;;;4.60;2.60;;;;;;;18.91;48.32;100244.97;5049681;28;20407;-62
2022/03/13 10:19:53;;;;;;;3.60;2.60;;;;;;;18.95;48.12;100245.84;5049280;28;20971;-61
2022/03/13 10:22:19;;;;;;;5.93;2.70;;;;;;;18.91;48.40;100249.88;5049192;28;20433;-61
2022/03/13 10:24:46;;;;;;;3.50;2.10;;;;;;;18.90;48.35;100246.19;5052281;28;20179;-62
2022/03/13 10:27:18;;;;;;;4.40;2.70;;;;;;;18.92;48.35;100243.75;5036132;28;20167;-61
2022/03/13 10:29:45;;;;;;;3.50;2.30;;;;;;;18.90;48.33;100239.63;5053418;28;20452;-61
2022/03/13 10:32:10;;;;;;;3.50;2.50;;;;;;;18.91;48.46;100241.31;5053275;28;20529;-61
2022/03/13 10:34:36;;;;;;;4.70;2.57;;;;;;;18.90;48.74;100246.19;5053364;28;20425;-61
2022/03/13 10:37:02;;;;;;;4.13;2.30;;;;;;;18.92;48.34;100240.09;5053660;28;20418;-61
2022/03/13 10:39:28;;;;;;;4.43;2.80;;;;;;;18.91;48.04;100236.41;5052918;28;20172;-61
2022/03/13 10:41:59;;;;;;;5.30;2.63;;;;;;;18.91;48.31;100235.59;5053097;28;20416;-61
2022/03/13 10:44:25;;;;;;;3.87;2.53;;;;;;;18.91;48.63;100236.41;5040723;28;20176;-61
2022/03/13 10:46:57;;;;;;;3.90;3.00;;;;;;;18.91;48.26;100229.88;5032316;28;20426;-61
2022/03/13 10:49:36;;;;;;;3.63;2.40;;;;;;;18.91;48.26;100232.72;5032942;28;20418;-61
2022/03/13 10:52:08;;;;;;;3.20;2.17;;;;;;;18.93;48.15;100234.00;5046989;28;20458;-61
2022/03/13 10:54:37;;;;;;;4.50;2.87;;;;;;;18.94;48.29;100223.34;5052544;28;20402;-61
2022/03/13 10:57:09;;;;;;;3.73;2.50;;;;;;;18.91;48.61;100218.41;5053040;28;20913;-61
2022/03/13 10:59:35;;;;;;;4.30;2.70;;;;;;;18.92;48.15;100214.34;5052002;28;20418;-61
2022/03/13 11:02:14;;;;;;;4.10;2.50;;;;;;;18.93;48.47;100211.09;5052713;28;20468;-61
2022/03/13 11:04:55;;;;;;;3.87;2.40;;;;;;;18.94;48.19;100211.91;5053019;28;20452;-61
2022/03/13 11:07:22;;;;;;;3.87;2.17;;;;;;;18.93;48.64;100204.53;5052738;28;20454;-61
2022/03/13 11:09:48;;;;;;;4.17;2.43;;;;;;;18.94;48.20;100212.75;5034174;28;20454;-61
2022/03/13 11:12:20;;;;;;;4.23;2.80;;;;;;;18.92;48.43;100197.97;5032206;28;20977;-60
2022/03/13 11:14:48;;;;;;;3.90;2.13;;;;;;;18.95;48.47;100211.53;5032810;28;20161;-60
2022/03/13 11:17:14;;;;;;;3.80;2.17;;;;;;;18.93;48.84;100208.25;5031730;28;21539;-60
2022/03/13 11:19:40;;;;;;;4.00;2.30;;;;;;;18.94;48.39;100203.31;5032316;28;20427;-60